createdAt,value
2017-08-02T00:00:32.427Z,17.10
2017-08-02T00:03:00.756Z,17.00
2017-08-02T00:05:29.092Z,16.90
2017-08-02T00:07:57.407Z,16.80
2017-08-02T00:10:25.736Z,16.80
2017-08-02T00:12:54.051Z,16.80
2017-08-02T00:15:22.382Z,16.70
2017-08-02T00:17:50.693Z,16.60
2017-08-02T00:20:19.031Z,16.60
2017-08-02T00:22:47.337Z,16.50
2017-08-02T00:25:15.657Z,16.40
2017-08-02T00:27:43.991Z,16.40
2017-08-02T00:30:12.320Z,16.40
2017-08-02T00:32:40.651Z,16.30
2017-08-02T00:35:08.979Z,16.30
2017-08-02T00:37:37.324Z,16.20
2017-08-02T00:40:05.637Z,16.20
2017-08-02T00:42:33.979Z,16.10
2017-08-02T00:45:02.298Z,16.00
2017-08-02T00:47:30.637Z,15.90
2017-08-02T00:49:58.957Z,15.80
2017-08-02T00:52:27.295Z,15.80
2017-08-02T00:54:55.619Z,15.80
2017-08-02T00:57:23.944Z,15.80
2017-08-02T00:59:52.281Z,15.80
2017-08-02T01:02:20.601Z,15.80
2017-08-02T01:04:48.940Z,15.80
2017-08-02T01:07:17.258Z,15.70
2017-08-02T01:09:45.680Z,15.80
2017-08-02T01:12:13.995Z,15.70
2017-08-02T01:14:42.331Z,15.70
2017-08-02T01:17:10.683Z,15.70
2017-08-02T01:19:39.023Z,15.70
2017-08-02T01:22:07.345Z,15.70
2017-08-02T01:24:35.685Z,15.70
2017-08-02T01:27:03.999Z,15.70
2017-08-02T01:29:32.307Z,15.70
2017-08-02T01:32:00.635Z,15.70
2017-08-02T01:34:28.947Z,15.70
2017-08-02T01:36:57.287Z,15.70
2017-08-02T01:39:25.598Z,15.60
2017-08-02T01:41:53.936Z,15.60
2017-08-02T01:44:22.247Z,15.60
2017-08-02T01:46:50.581Z,15.60
2017-08-02T01:49:18.891Z,15.60
2017-08-02T01:51:47.228Z,15.60
2017-08-02T01:54:15.535Z,15.60
2017-08-02T01:56:43.870Z,15.60
2017-08-02T01:59:12.187Z,15.50
2017-08-02T02:01:40.512Z,15.50
2017-08-02T02:04:08.848Z,15.40
2017-08-02T02:06:37.158Z,15.30
2017-08-02T02:09:05.490Z,15.30
2017-08-02T02:11:33.803Z,15.40
2017-08-02T02:14:02.145Z,15.40
2017-08-02T02:16:30.471Z,15.50
2017-08-02T02:18:58.804Z,15.40
2017-08-02T02:21:27.118Z,15.40
2017-08-02T02:23:55.448Z,15.40
2017-08-02T02:26:23.763Z,15.50
2017-08-02T02:28:52.096Z,15.50
2017-08-02T02:31:20.431Z,15.50
2017-08-02T02:33:48.769Z,15.50
2017-08-02T02:36:17.107Z,15.50
2017-08-02T02:38:45.418Z,15.50
2017-08-02T02:41:13.750Z,15.50
2017-08-02T02:43:42.096Z,15.50
2017-08-02T02:46:10.444Z,15.50
2017-08-02T02:48:38.767Z,15.40
2017-08-02T02:51:07.097Z,15.40
2017-08-02T02:53:35.413Z,15.30
2017-08-02T02:56:03.744Z,15.30
2017-08-02T02:58:32.073Z,15.30
2017-08-02T03:01:00.405Z,15.30
2017-08-02T03:03:28.707Z,15.30
2017-08-02T03:05:57.012Z,15.30
2017-08-02T03:08:25.353Z,15.30
2017-08-02T03:10:53.664Z,15.30
2017-08-02T03:13:21.231Z,15.20
2017-08-02T03:15:49.547Z,15.30
2017-08-02T03:18:17.882Z,15.30
2017-08-02T03:20:46.194Z,15.30
2017-08-02T03:23:14.536Z,15.30
2017-08-02T03:25:42.085Z,15.20
2017-08-02T03:28:10.460Z,15.30
2017-08-02T03:30:38.777Z,15.20
2017-08-02T03:33:07.104Z,15.20
2017-08-02T03:35:35.447Z,15.20
2017-08-02T03:38:03.749Z,15.20
2017-08-02T03:40:32.089Z,15.20
2017-08-02T03:43:00.412Z,15.10
2017-08-02T03:45:28.740Z,15.20
2017-08-02T03:47:57.057Z,15.10
2017-08-02T03:50:25.391Z,15.10
2017-08-02T03:52:53.711Z,15.10
2017-08-02T03:55:22.014Z,15.10
2017-08-02T03:57:50.349Z,15.00
2017-08-02T04:00:18.666Z,15.00
2017-08-02T04:02:46.239Z,15.00
2017-08-02T04:05:14.556Z,15.00
2017-08-02T04:07:42.894Z,15.00
2017-08-02T04:10:11.208Z,15.00
2017-08-02T04:12:39.544Z,15.00
2017-08-02T04:15:07.855Z,15.00
2017-08-02T04:17:36.193Z,15.00
2017-08-02T04:20:04.498Z,15.00
2017-08-02T04:22:32.843Z,15.00
2017-08-02T04:25:01.151Z,15.00
2017-08-02T04:27:29.472Z,15.00
2017-08-02T04:29:57.811Z,15.00
2017-08-02T04:32:26.133Z,15.00
2017-08-02T04:34:54.466Z,15.00
2017-08-02T04:37:22.791Z,15.00
2017-08-02T04:39:50.357Z,15.00
2017-08-02T04:42:18.659Z,15.10
2017-08-02T04:44:47.002Z,15.20
2017-08-02T04:47:15.323Z,15.20
2017-08-02T04:49:43.647Z,15.40
2017-08-02T04:52:11.966Z,15.70
2017-08-02T04:54:40.296Z,16.20
2017-08-02T04:57:08.677Z,16.60
2017-08-02T04:59:36.978Z,17.00
2017-08-02T05:02:05.309Z,17.60
2017-08-02T05:04:33.627Z,18.20
2017-08-02T05:07:01.960Z,18.90
2017-08-02T05:09:29.494Z,18.80
2017-08-02T05:11:57.825Z,19.80
2017-08-02T05:14:26.136Z,20.10
2017-08-02T05:16:54.460Z,20.40
2017-08-02T05:19:22.777Z,20.50
2017-08-02T05:21:51.113Z,20.40
2017-08-02T05:24:19.428Z,20.20
2017-08-02T05:26:47.764Z,19.90
2017-08-02T05:29:16.068Z,19.60
2017-08-02T05:31:44.384Z,19.50
2017-08-02T05:34:12.718Z,19.40
2017-08-02T05:36:41.028Z,19.30
2017-08-02T05:39:09.359Z,19.30
2017-08-02T05:41:36.909Z,19.30
2017-08-02T05:44:04.470Z,19.40
2017-08-02T05:46:32.766Z,19.70
2017-08-02T05:49:01.092Z,19.80
2017-08-02T05:51:29.428Z,19.90
2017-08-02T05:53:57.785Z,20.00
2017-08-02T05:56:26.090Z,19.90
2017-08-02T05:58:54.400Z,19.90
2017-08-02T06:01:22.732Z,20.00
2017-08-02T06:03:51.041Z,20.10
2017-08-02T06:06:20.209Z,20.20
2017-08-02T06:08:48.520Z,20.30
2017-08-02T06:11:16.850Z,20.50
2017-08-02T06:13:45.158Z,20.70
2017-08-02T06:16:13.500Z,20.60
2017-08-02T06:18:41.811Z,20.60
2017-08-02T06:21:10.151Z,20.50
2017-08-02T06:23:38.460Z,20.50
2017-08-02T06:26:06.771Z,20.50
2017-08-02T06:28:35.106Z,20.50
2017-08-02T06:31:03.417Z,20.50
2017-08-02T06:33:31.745Z,20.50
2017-08-02T06:36:00.059Z,20.60
2017-08-02T06:38:28.402Z,20.80
2017-08-02T06:40:56.707Z,21.10
2017-08-02T06:43:25.030Z,21.20
2017-08-02T06:45:53.355Z,21.40
2017-08-02T06:48:21.687Z,21.50
2017-08-02T06:50:50.004Z,21.70
2017-08-02T06:53:18.349Z,21.80
2017-08-02T06:55:46.666Z,22.00
2017-08-02T06:58:14.972Z,22.10
2017-08-02T07:00:43.315Z,22.10
2017-08-02T07:03:11.628Z,22.10
2017-08-02T07:05:39.959Z,22.10
2017-08-02T07:08:08.268Z,22.10
2017-08-02T07:10:36.598Z,22.20
2017-08-02T07:13:04.906Z,22.20
2017-08-02T07:15:33.233Z,22.30
2017-08-02T07:18:01.545Z,22.40
2017-08-02T07:20:29.873Z,22.40
2017-08-02T07:22:58.184Z,22.50
2017-08-02T07:25:26.521Z,22.70
2017-08-02T07:27:54.832Z,23.00
2017-08-02T07:30:23.146Z,23.20
2017-08-02T07:32:51.477Z,23.30
2017-08-02T07:35:19.015Z,23.30
2017-08-02T07:37:47.349Z,23.30
2017-08-02T07:40:15.656Z,23.30
2017-08-02T07:42:43.990Z,23.40
2017-08-02T07:45:12.302Z,23.70
2017-08-02T07:47:40.634Z,23.90
2017-08-02T07:52:18.312Z,24.10
2017-08-02T07:54:46.623Z,24.10
2017-08-02T07:57:14.928Z,24.00
2017-08-02T07:59:43.256Z,24.00
2017-08-02T08:02:11.560Z,24.20
2017-08-02T08:04:39.895Z,24.30
2017-08-02T08:07:08.200Z,24.40
2017-08-02T08:09:36.539Z,24.50
2017-08-02T08:12:04.847Z,24.40
2017-08-02T08:14:33.184Z,24.20
2017-08-02T08:17:01.495Z,24.20
2017-08-02T08:19:29.807Z,24.40
2017-08-02T08:21:58.145Z,24.40
2017-08-02T08:24:26.460Z,24.50
2017-08-02T08:26:54.800Z,24.50
2017-08-02T08:29:23.115Z,24.50
2017-08-02T08:31:51.442Z,24.70
2017-08-02T08:34:19.745Z,24.70
2017-08-02T08:36:48.083Z,24.80
2017-08-02T08:39:16.415Z,24.90
2017-08-02T08:41:44.752Z,25.10
2017-08-02T08:44:13.067Z,25.20
2017-08-02T08:46:41.382Z,25.10
2017-08-02T08:49:09.714Z,25.10
2017-08-02T08:51:37.260Z,25.10
2017-08-02T08:54:05.597Z,25.10
2017-08-02T08:56:33.918Z,25.20
2017-08-02T08:59:02.248Z,25.30
2017-08-02T09:01:30.559Z,25.50
2017-08-02T09:03:58.891Z,25.50
2017-08-02T09:06:27.196Z,25.50
2017-08-02T09:08:55.531Z,25.30
2017-08-02T09:11:23.834Z,25.20
2017-08-02T09:13:52.139Z,25.10
2017-08-02T09:16:20.477Z,24.90
2017-08-02T09:18:48.778Z,24.80
2017-08-02T09:21:17.112Z,24.90
2017-08-02T09:23:45.423Z,25.10
2017-08-02T09:26:13.750Z,25.20
2017-08-02T09:28:42.059Z,25.10
2017-08-02T09:31:10.392Z,25.00
2017-08-02T09:33:38.701Z,24.80
2017-08-02T09:36:07.008Z,24.70
2017-08-02T09:38:35.340Z,24.50
2017-08-02T09:41:03.644Z,24.50
2017-08-02T09:43:31.984Z,24.60
2017-08-02T09:46:00.294Z,24.60
2017-08-02T09:48:28.626Z,24.70
2017-08-02T09:50:56.931Z,24.80
2017-08-02T09:53:25.272Z,24.80
2017-08-02T09:55:53.584Z,24.80
2017-08-02T09:58:21.919Z,24.90
2017-08-02T10:00:50.233Z,24.90
2017-08-02T10:03:18.594Z,25.00
2017-08-02T10:05:46.910Z,25.00
2017-08-02T10:08:15.219Z,25.00
2017-08-02T10:10:43.556Z,25.10
2017-08-02T10:13:11.865Z,25.10
2017-08-02T10:15:40.196Z,25.20
2017-08-02T10:18:08.497Z,25.20
2017-08-02T10:20:36.826Z,25.20
2017-08-02T10:23:05.135Z,25.30
2017-08-02T10:25:33.463Z,25.40
2017-08-02T10:28:01.776Z,25.50
2017-08-02T10:30:29.339Z,25.40
2017-08-02T10:32:57.647Z,25.50
2017-08-02T10:35:25.981Z,25.50
2017-08-02T10:37:54.287Z,25.60
2017-08-02T10:40:22.591Z,25.60
2017-08-02T10:42:50.918Z,25.70
2017-08-02T10:45:19.228Z,25.90
2017-08-02T10:47:47.554Z,25.90
2017-08-02T10:50:15.868Z,25.90
2017-08-02T10:52:44.207Z,25.80
2017-08-02T10:55:12.514Z,25.70
2017-08-02T10:57:40.840Z,25.80
2017-08-02T11:00:09.138Z,25.80
2017-08-02T11:02:37.492Z,25.90
2017-08-02T11:05:05.801Z,25.90
2017-08-02T11:07:34.118Z,26.10
2017-08-02T11:10:02.448Z,26.30
2017-08-02T11:12:30.780Z,26.50
2017-08-02T11:14:59.109Z,26.50
2017-08-02T11:17:27.428Z,26.50
2017-08-02T11:19:55.756Z,26.60
2017-08-02T11:22:24.084Z,26.60
2017-08-02T11:24:52.414Z,26.60
2017-08-02T11:27:20.744Z,26.50
2017-08-02T11:29:49.053Z,26.40
2017-08-02T11:32:16.623Z,26.40
2017-08-02T11:34:44.951Z,26.60
2017-08-02T11:37:13.283Z,26.90
2017-08-02T11:39:41.604Z,27.40
2017-08-02T11:42:09.950Z,27.90
2017-08-02T11:44:38.256Z,28.30
2017-08-02T11:47:06.584Z,28.40
2017-08-02T11:49:34.899Z,28.40
2017-08-02T11:52:03.207Z,28.30
2017-08-02T11:54:31.542Z,27.90
2017-08-02T11:56:59.855Z,27.60
2017-08-02T11:59:28.186Z,27.50
2017-08-02T12:01:56.505Z,27.40
2017-08-02T12:04:24.833Z,27.30
2017-08-02T12:06:53.157Z,27.20
2017-08-02T12:09:21.486Z,27.00
2017-08-02T12:11:49.812Z,27.00
2017-08-02T12:14:18.121Z,26.90
2017-08-02T12:16:46.452Z,26.80
2017-08-02T12:19:14.766Z,26.70
2017-08-02T12:21:43.091Z,26.60
2017-08-02T12:24:11.396Z,26.50
2017-08-02T12:26:39.724Z,26.60
2017-08-02T12:29:08.037Z,26.60
2017-08-02T12:31:36.366Z,26.60
2017-08-02T12:34:04.665Z,26.60
2017-08-02T12:36:32.982Z,26.50
2017-08-02T12:39:01.311Z,26.50
2017-08-02T12:41:29.639Z,26.40
2017-08-02T12:43:57.971Z,26.30
2017-08-02T12:46:26.285Z,26.30
2017-08-02T12:48:54.610Z,26.30
2017-08-02T12:51:22.949Z,26.30
2017-08-02T12:53:51.275Z,26.40
2017-08-02T12:56:19.600Z,26.50
2017-08-02T12:58:47.916Z,26.50
2017-08-02T13:01:16.293Z,26.50
2017-08-02T13:03:44.599Z,26.50
2017-08-02T13:06:12.945Z,26.50
2017-08-02T13:08:41.254Z,26.50
2017-08-02T13:11:08.822Z,26.40
2017-08-02T13:13:37.135Z,26.40
2017-08-02T13:16:05.443Z,26.50
2017-08-02T13:18:33.768Z,26.60
2017-08-02T13:21:02.079Z,26.70
2017-08-02T13:23:30.412Z,26.80
2017-08-02T13:25:58.725Z,27.00
2017-08-02T13:28:27.081Z,27.00
2017-08-02T13:30:55.391Z,27.00
2017-08-02T13:33:23.691Z,27.00
2017-08-02T13:35:52.087Z,27.00
2017-08-02T13:38:20.395Z,27.00
2017-08-02T13:40:48.735Z,26.90
2017-08-02T13:43:17.053Z,26.70
2017-08-02T13:45:45.391Z,26.60
2017-08-02T13:48:13.709Z,26.60
2017-08-02T13:50:42.054Z,26.70
2017-08-02T13:53:10.376Z,26.60
2017-08-02T13:55:38.683Z,26.50
2017-08-02T13:58:07.026Z,26.50
2017-08-02T14:00:35.329Z,26.60
2017-08-02T14:03:02.895Z,26.60
2017-08-02T14:05:31.203Z,26.80
2017-08-02T14:07:59.537Z,26.80
2017-08-02T14:10:27.847Z,26.60
2017-08-02T14:12:56.191Z,26.40
2017-08-02T14:15:24.503Z,26.30
2017-08-02T14:17:52.827Z,26.30
2017-08-02T14:20:21.155Z,26.40
2017-08-02T14:22:49.463Z,26.50
2017-08-02T14:25:17.790Z,26.40
2017-08-02T14:27:46.109Z,26.40
2017-08-02T14:30:14.439Z,26.50
2017-08-02T14:32:42.749Z,26.40
2017-08-02T14:35:10.318Z,26.40
2017-08-02T14:37:38.640Z,26.40
2017-08-02T14:40:07.004Z,26.30
2017-08-02T14:42:35.313Z,26.20
2017-08-02T14:45:03.622Z,26.20
2017-08-02T14:47:31.191Z,26.20
2017-08-02T14:49:59.494Z,26.10
2017-08-02T14:52:27.828Z,26.10
2017-08-02T14:54:56.139Z,26.10
2017-08-02T14:57:24.464Z,26.10
2017-08-02T14:59:51.996Z,26.10
2017-08-02T15:02:20.327Z,26.20
2017-08-02T15:04:48.633Z,26.30
2017-08-02T15:07:16.966Z,26.40
2017-08-02T15:09:45.290Z,26.50
2017-08-02T15:12:13.625Z,26.50
2017-08-02T15:14:41.967Z,26.60
2017-08-02T15:17:10.275Z,26.80
2017-08-02T15:19:38.608Z,26.80
2017-08-02T15:22:06.917Z,26.80
2017-08-02T15:24:35.255Z,26.60
2017-08-02T15:27:03.559Z,26.50
2017-08-02T15:29:31.885Z,26.50
2017-08-02T15:32:00.200Z,26.30
2017-08-02T15:34:28.535Z,26.30
2017-08-02T15:36:56.838Z,26.30
2017-08-02T15:39:25.170Z,26.30
2017-08-02T15:41:53.492Z,26.30
2017-08-02T15:44:21.032Z,26.30
2017-08-02T15:46:49.365Z,26.20
2017-08-02T15:49:17.671Z,26.30
2017-08-02T15:51:46.011Z,26.40
2017-08-02T15:54:14.319Z,26.50
2017-08-02T15:56:42.643Z,26.60
2017-08-02T15:59:10.951Z,26.50
2017-08-02T16:01:39.279Z,26.30
2017-08-02T16:04:07.583Z,26.30
2017-08-02T16:06:35.920Z,26.20
2017-08-02T16:09:04.243Z,26.30
2017-08-02T16:11:32.586Z,26.40
2017-08-02T16:14:00.899Z,26.40
2017-08-02T16:16:29.211Z,26.30
2017-08-02T16:18:57.557Z,26.20
2017-08-02T16:21:25.867Z,26.20
2017-08-02T16:23:54.208Z,26.20
2017-08-02T16:26:22.512Z,26.20
2017-08-02T16:28:50.840Z,26.10
2017-08-02T16:31:19.148Z,25.90
2017-08-02T16:33:47.478Z,25.80
2017-08-02T16:36:15.787Z,25.60
2017-08-02T16:38:44.120Z,25.50
2017-08-02T16:41:11.664Z,25.50
2017-08-02T16:43:39.992Z,25.30
2017-08-02T16:46:08.300Z,25.20
2017-08-02T16:48:36.606Z,25.10
2017-08-02T16:51:04.951Z,25.00
2017-08-02T16:53:33.257Z,24.90
2017-08-02T16:56:01.603Z,24.90
2017-08-02T16:58:29.915Z,24.80
2017-08-02T17:00:58.247Z,24.70
2017-08-02T17:03:26.555Z,24.50
2017-08-02T17:05:55.004Z,24.40
2017-08-02T17:08:23.312Z,24.40
2017-08-02T17:10:51.661Z,24.30
2017-08-02T17:13:19.958Z,24.20
2017-08-02T17:15:47.499Z,24.20
2017-08-02T17:18:15.823Z,24.10
2017-08-02T17:20:44.136Z,24.00
2017-08-02T17:23:12.462Z,24.00
2017-08-02T17:25:40.781Z,23.90
2017-08-02T17:28:09.107Z,23.80
2017-08-02T17:30:37.407Z,23.70
2017-08-02T17:33:05.739Z,23.60
2017-08-02T17:35:34.048Z,23.50
2017-08-02T17:38:02.391Z,23.40
2017-08-02T17:40:30.698Z,23.40
2017-08-02T17:42:59.028Z,23.30
2017-08-02T17:45:27.331Z,23.20
2017-08-02T17:47:55.644Z,23.10
2017-08-02T17:50:23.970Z,23.10
2017-08-02T17:52:52.278Z,23.00
2017-08-02T17:55:20.599Z,23.00
2017-08-02T17:57:48.917Z,23.00
2017-08-02T18:00:17.238Z,22.90
2017-08-02T18:02:45.538Z,22.90
2017-08-02T18:05:13.892Z,22.80
2017-08-02T18:07:42.209Z,22.80
2017-08-02T18:10:09.761Z,22.80
2017-08-02T18:12:38.095Z,22.70
2017-08-02T18:15:06.398Z,22.50
2017-08-02T18:17:34.726Z,22.40
2017-08-02T18:20:03.033Z,22.40
2017-08-02T18:22:31.356Z,22.30
2017-08-02T18:24:59.670Z,22.20
2017-08-02T18:27:28.021Z,22.30
2017-08-02T18:29:56.331Z,22.20
2017-08-02T18:32:24.696Z,22.20
2017-08-02T18:34:53.017Z,22.20
2017-08-02T18:37:22.242Z,22.10
2017-08-02T18:39:50.576Z,22.10
2017-08-02T18:42:18.892Z,22.10
2017-08-02T18:44:47.226Z,22.10
2017-08-02T18:47:15.551Z,22.00
2017-08-02T18:49:43.884Z,22.00
2017-08-02T18:52:12.187Z,22.00
2017-08-02T18:54:40.520Z,22.00
2017-08-02T18:57:08.845Z,22.00
2017-08-02T18:59:37.171Z,22.00
2017-08-02T19:02:05.480Z,22.00
2017-08-02T19:04:33.807Z,22.00
2017-08-02T19:07:02.111Z,21.90
2017-08-02T19:09:30.415Z,21.90
2017-08-02T19:11:58.742Z,21.80
2017-08-02T19:14:27.050Z,21.80
2017-08-02T19:16:55.388Z,21.80
2017-08-02T19:19:23.687Z,21.70
2017-08-02T19:21:52.047Z,21.70
2017-08-02T19:24:20.362Z,21.70
2017-08-02T19:26:48.687Z,21.70
2017-08-02T19:29:16.989Z,21.70
2017-08-02T19:31:45.319Z,21.60
2017-08-02T19:34:13.628Z,21.60
2017-08-02T19:36:41.958Z,21.60
2017-08-02T19:39:10.267Z,21.60
2017-08-02T19:41:38.578Z,21.60
2017-08-02T19:44:06.902Z,21.60
2017-08-02T19:46:35.208Z,21.50
2017-08-02T19:49:03.545Z,21.50
2017-08-02T19:51:31.856Z,21.50
2017-08-02T19:54:00.182Z,21.40
2017-08-02T19:56:28.493Z,21.40
2017-08-02T19:58:56.827Z,21.40
2017-08-02T20:01:25.136Z,21.40
2017-08-02T20:03:53.464Z,21.40
2017-08-02T20:06:21.771Z,21.30
2017-08-02T20:08:50.098Z,21.30
2017-08-02T20:11:18.430Z,21.30
2017-08-02T20:13:46.733Z,21.20
2017-08-02T20:16:15.064Z,21.20
2017-08-02T20:18:43.379Z,21.20
2017-08-02T20:21:11.706Z,21.20
2017-08-02T20:23:40.014Z,21.20
2017-08-02T20:26:08.360Z,21.20
2017-08-02T20:28:36.679Z,21.10
2017-08-02T20:31:05.036Z,21.10
2017-08-02T20:33:33.357Z,21.10
2017-08-02T20:36:00.915Z,21.10
2017-08-02T20:38:29.254Z,21.00
2017-08-02T20:40:56.814Z,21.10
2017-08-02T20:43:25.147Z,21.00
2017-08-02T20:45:53.456Z,21.00
2017-08-02T20:48:21.783Z,21.00
2017-08-02T20:50:50.083Z,21.00
2017-08-02T20:53:18.407Z,20.90
2017-08-02T20:55:46.716Z,20.90
2017-08-02T20:58:15.050Z,20.90
2017-08-02T21:00:43.363Z,20.90
2017-08-02T21:03:11.667Z,20.80
2017-08-02T21:05:40.000Z,20.80
2017-08-02T21:08:08.308Z,20.80
2017-08-02T21:10:36.628Z,20.80
2017-08-02T21:13:04.938Z,20.70
2017-08-02T21:15:32.499Z,20.70
2017-08-02T21:18:00.799Z,20.60
2017-08-02T21:20:29.135Z,20.50
2017-08-02T21:22:57.439Z,20.40
2017-08-02T21:25:25.781Z,20.30
2017-08-02T21:27:54.086Z,20.30
2017-08-02T21:30:22.393Z,20.20
2017-08-02T21:32:50.728Z,20.10
2017-08-02T21:35:19.041Z,20.00
2017-08-02T21:37:47.362Z,20.00
2017-08-02T21:40:14.916Z,19.90
2017-08-02T21:42:43.259Z,19.80
2017-08-02T21:45:11.563Z,19.70
2017-08-02T21:47:39.906Z,19.70
2017-08-02T21:50:08.220Z,19.70
2017-08-02T21:52:36.586Z,19.70
2017-08-02T21:55:04.899Z,19.60
2017-08-02T21:57:33.209Z,19.60
2017-08-02T22:00:01.541Z,19.60
2017-08-02T22:02:29.855Z,19.60
2017-08-02T22:04:58.183Z,19.50
2017-08-02T22:07:26.486Z,19.50
2017-08-02T22:09:54.813Z,19.40
2017-08-02T22:12:23.119Z,19.40
2017-08-02T22:14:51.463Z,19.30
2017-08-02T22:17:19.769Z,19.30
2017-08-02T22:19:48.116Z,19.30
2017-08-02T22:22:16.430Z,19.20
2017-08-02T22:24:43.966Z,19.20
2017-08-02T22:27:12.300Z,19.20
2017-08-02T22:29:40.608Z,19.10
2017-08-02T22:32:08.943Z,19.10
2017-08-02T22:34:37.256Z,19.10
2017-08-02T22:37:05.578Z,19.00
2017-08-02T22:39:33.883Z,19.00
2017-08-02T22:42:02.221Z,19.00
2017-08-02T22:44:30.531Z,19.00
2017-08-02T22:46:58.886Z,18.90
2017-08-02T22:49:27.198Z,18.90
2017-08-02T22:51:55.508Z,18.80
2017-08-02T22:54:23.833Z,18.80
2017-08-02T22:56:52.143Z,18.70
2017-08-02T22:59:20.480Z,18.70
2017-08-02T23:01:48.813Z,18.60
2017-08-02T23:04:17.171Z,18.60
2017-08-02T23:06:45.480Z,18.60
2017-08-02T23:09:13.791Z,18.50
2017-08-02T23:11:42.116Z,18.50
2017-08-02T23:14:10.424Z,18.50
2017-08-02T23:16:38.773Z,18.50
2017-08-02T23:19:07.083Z,18.40
2017-08-02T23:21:35.430Z,18.40
2017-08-02T23:24:03.744Z,18.40
2017-08-02T23:26:32.083Z,18.30
2017-08-02T23:29:00.392Z,18.30
2017-08-02T23:31:28.713Z,18.30
2017-08-02T23:33:57.045Z,18.40
2017-08-02T23:36:25.367Z,18.40
2017-08-02T23:38:53.696Z,18.40
2017-08-02T23:41:22.024Z,18.40
2017-08-02T23:43:50.350Z,18.40
2017-08-02T23:46:18.871Z,18.40
2017-08-02T23:48:47.261Z,18.40
2017-08-02T23:51:15.571Z,18.50
2017-08-02T23:53:43.899Z,18.50
2017-08-02T23:56:12.209Z,18.50
2017-08-02T23:58:40.510Z,18.50
